Time;durP1;ratioP1;P1;durP2;ratioP2;P2;SDS_P1;SDS_P2;PMS_P1;PMS_P2;Temp;Humidity;BMP_temperature;BMP_pressure;BME280_temperature;BME280_humidity;BME280_pressure;Samples;Min_cycle;Max_cycle;Signal;HPM_P1;HPM_P2
2022/12/08 00:02:35;0.00;0.00;0.62;0.00;0.00;0.62;3.27;0.80;;;21.90;25.70;;;;;;2239040;61;20956;-68
2022/12/08 00:11:28;0.00;0.00;0.62;0.00;0.00;0.62;1.50;0.87;;;21.90;25.50;;;;;;2238887;61;20405;-69
2022/12/08 00:14:15;0.00;0.00;0.62;0.00;0.00;0.62;1.53;1.00;;;22.00;25.60;;;;;;2242499;61;20361;-69
2022/12/08 00:17:00;0.00;0.00;0.62;0.00;0.00;0.62;1.40;0.80;;;22.00;26.10;;;;;;2241282;61;20782;-70
2022/12/08 00:19:45;0.00;0.00;0.62;0.00;0.00;0.62;1.60;0.83;;;22.00;25.50;;;;;;2242326;61;20444;-69
2022/12/08 00:22:31;0.00;0.00;0.62;0.00;0.00;0.62;1.37;0.80;;;21.90;25.50;;;;;;2244121;61;20458;-70
2022/12/08 00:25:16;0.00;0.00;0.62;0.00;0.00;0.62;1.20;0.60;;;21.90;25.50;;;;;;2242872;61;20824;-69
2022/12/08 00:28:01;0.00;0.00;0.62;0.00;0.00;0.62;1.80;0.80;;;21.90;25.50;;;;;;2243977;61;20369;-70
2022/12/08 00:30:55;0.00;0.00;0.62;0.00;0.00;0.62;1.53;0.70;;;22.00;25.50;;;;;;2244194;61;20408;-70
2022/12/08 00:33:46;0.00;0.00;0.62;0.00;0.00;0.62;1.40;0.77;;;21.90;25.50;;;;;;2243045;61;20874;-69
2022/12/08 00:36:31;0.00;0.00;0.62;0.00;0.00;0.62;1.30;0.80;;;21.90;25.50;;;;;;2244241;61;20448;-69
2022/12/08 00:39:16;0.00;0.00;0.62;0.00;0.00;0.62;1.73;0.60;;;22.00;25.50;;;;;;2243302;61;20413;-71
2022/12/08 00:42:10;0.00;0.00;0.62;0.00;0.00;0.62;1.30;0.60;;;21.90;25.50;;;;;;2244354;61;20859;-71
2022/12/08 00:44:55;0.00;0.00;0.62;0.00;0.00;0.62;1.37;0.80;;;22.00;25.50;;;;;;2244138;61;20758;-69
2022/12/08 00:47:43;0.00;0.00;0.62;0.00;0.00;0.62;1.40;0.80;;;22.00;25.50;;;;;;2242754;61;20368;-69
2022/12/08 00:50:28;0.00;0.00;0.62;0.00;0.00;0.62;1.50;1.00;;;22.00;25.50;;;;;;2244050;61;20396;-69
2022/12/08 00:53:12;0.00;0.00;0.62;0.00;0.00;0.62;1.50;0.80;;;21.90;25.50;;;;;;2244846;61;20372;-70
2022/12/08 00:55:57;0.00;0.00;0.62;0.00;0.00;0.62;1.60;0.80;;;21.90;25.50;;;;;;2243572;61;20368;-71
2022/12/08 00:58:42;0.00;0.00;0.62;0.00;0.00;0.62;2.13;0.87;;;21.90;25.50;;;;;;2244875;61;20435;-70
2022/12/08 01:01:27;0.00;0.00;0.62;0.00;0.00;0.62;1.40;0.80;;;22.00;25.50;;;;;;2244296;61;20368;-70
2022/12/08 01:04:16;0.00;0.00;0.62;0.00;0.00;0.62;1.60;0.80;;;21.90;25.50;;;;;;2244626;61;20469;-70
2022/12/08 01:07:01;0.00;0.00;0.62;0.00;0.00;0.62;2.30;0.70;;;21.90;25.50;;;;;;2244791;61;20378;-70
2022/12/08 01:09:46;0.00;0.00;0.62;0.00;0.00;0.62;1.20;0.70;;;22.00;25.50;;;;;;2243564;61;20416;-70
2022/12/08 01:12:31;0.00;0.00;0.62;0.00;0.00;0.62;2.07;0.80;;;21.90;25.50;;;;;;2244653;61;20894;-72
2022/12/08 01:15:15;0.00;0.00;0.62;0.00;0.00;0.62;1.87;1.00;;;21.90;25.40;;;;;;2247043;61;20368;-72
2022/12/08 01:18:00;0.00;0.00;0.62;0.00;0.00;0.62;2.67;1.70;;;21.90;25.30;;;;;;2243450;61;20360;-73
2022/12/08 01:20:47;0.00;0.00;0.62;0.00;0.00;0.62;2.00;1.33;;;21.80;25.10;;;;;;2244849;61;20884;-72
2022/12/08 01:23:32;0.00;0.00;0.62;0.00;0.00;0.62;3.10;1.50;;;21.80;24.90;;;;;;2244091;61;20365;-73
2022/12/08 01:26:18;0.00;0.00;0.62;0.00;0.00;0.62;1.70;1.13;;;21.80;24.80;;;;;;2246857;61;20383;-72
2022/12/08 01:29:02;0.00;0.00;0.62;0.00;0.00;0.62;2.77;1.40;;;21.70;24.80;;;;;;2244513;61;20385;-72
2022/12/08 01:31:47;0.00;0.00;0.62;0.00;0.00;0.62;1.97;1.60;;;21.70;24.80;;;;;;2243341;61;20935;-72
2022/12/08 01:34:32;0.00;0.00;0.62;0.00;0.00;0.62;1.90;1.50;;;21.60;24.70;;;;;;2244469;61;20412;-73
2022/12/08 01:37:18;0.00;0.00;0.62;0.00;0.00;0.62;2.57;1.30;;;21.60;24.70;;;;;;2244701;61;20867;-74
2022/12/08 01:40:04;0.00;0.00;0.62;0.00;0.00;0.62;2.33;1.50;;;21.60;24.70;;;;;;2243527;61;20385;-72
2022/12/08 01:42:49;0.00;0.00;0.62;0.00;0.00;0.62;2.33;1.40;;;21.50;24.70;;;;;;2244433;61;20364;-74
2022/12/08 01:45:34;0.00;0.00;0.62;0.00;0.00;0.62;1.90;1.20;;;21.50;24.70;;;;;;2244638;61;20368;-73
2022/12/08 01:48:24;0.00;0.00;0.62;0.00;0.00;0.62;1.77;1.40;;;21.50;24.70;;;;;;2246432;61;20420;-73
2022/12/08 01:51:09;0.00;0.00;0.62;0.00;0.00;0.62;1.80;1.30;;;21.40;24.60;;;;;;2244700;61;20440;-74
2022/12/08 01:53:56;0.00;0.00;0.62;0.00;0.00;0.62;2.77;1.50;;;21.40;24.60;;;;;;2243446;61;20372;-74
2022/12/08 01:56:45;0.00;0.00;0.62;0.00;0.00;0.62;3.13;1.57;;;21.40;24.50;;;;;;2244532;61;20415;-72
2022/12/08 01:59:33;0.00;0.00;0.62;0.00;0.00;0.62;2.50;1.70;;;21.40;24.50;;;;;;2246902;61;20460;-72
2022/12/08 02:02:18;0.00;0.00;0.62;0.00;0.00;0.62;3.80;1.87;;;21.30;24.40;;;;;;2243318;61;20372;-73
2022/12/08 02:05:05;0.00;0.00;0.62;0.00;0.00;0.62;3.23;1.50;;;21.30;24.40;;;;;;2244782;61;20416;-73
2022/12/08 02:07:51;0.00;0.00;0.62;0.00;0.00;0.62;3.50;1.90;;;21.30;24.40;;;;;;2244033;61;20765;-72
2022/12/08 02:10:40;0.00;0.00;0.62;0.00;0.00;0.62;3.03;2.40;;;21.20;24.30;;;;;;2245410;61;20452;-72
2022/12/08 02:13:25;0.00;0.00;0.62;0.00;0.00;0.62;3.80;2.27;;;21.20;24.10;;;;;;2245846;61;20381;-72
2022/12/08 02:16:18;0.00;0.00;0.62;0.00;0.00;0.62;2.23;1.80;;;21.10;23.90;;;;;;2243005;61;20363;-71
2022/12/08 02:19:30;0.00;0.00;0.62;0.00;0.00;0.62;6.47;1.80;;;21.10;23.90;;;;;;2244404;61;20927;-72
2022/12/08 02:22:19;0.00;0.00;0.62;0.00;0.00;0.62;3.03;2.10;;;21.00;23.90;;;;;;2244469;61;20404;-71
2022/12/08 02:25:14;0.00;0.00;0.62;0.00;0.00;0.62;2.10;1.63;;;21.00;23.90;;;;;;2243676;61;20888;-71
2022/12/08 02:28:11;0.00;0.00;0.62;0.00;0.00;0.62;2.20;1.87;;;20.90;23.90;;;;;;2244573;61;20456;-72
2022/12/08 02:31:09;0.00;0.00;0.62;0.00;0.00;0.62;3.80;2.00;;;20.90;23.90;;;;;;2242975;61;20564;-71
2022/12/08 02:34:14;0.00;0.00;0.62;0.00;0.00;0.62;2.67;1.80;;;20.80;23.80;;;;;;2244561;61;20380;-73
2022/12/08 02:37:09;0.00;0.00;0.62;0.00;0.00;0.62;2.57;1.80;;;20.80;23.90;;;;;;2244136;61;20453;-71
2022/12/08 02:40:00;0.00;0.00;0.62;0.00;0.00;0.62;3.23;1.50;;;20.80;24.00;;;;;;2243786;61;20835;-72
2022/12/08 02:42:52;0.00;0.00;0.62;0.00;0.00;0.62;1.90;1.47;;;20.80;24.00;;;;;;2244417;61;20364;-73
2022/12/08 02:45:43;0.00;0.00;0.62;0.00;0.00;0.62;2.13;1.43;;;20.70;24.00;;;;;;2243300;61;20926;-72
2022/12/08 02:48:29;0.00;0.00;0.62;0.00;0.00;0.62;3.37;1.80;;;20.70;24.00;;;;;;2244166;61;20384;-71
2022/12/08 02:51:15;0.00;0.00;0.62;0.00;0.00;0.62;3.10;1.43;;;20.70;23.90;;;;;;2244324;61;20396;-71
2022/12/08 02:54:01;0.00;0.00;0.62;0.00;0.00;0.62;2.23;1.60;;;20.60;23.80;;;;;;2242806;61;20857;-72
2022/12/08 02:57:13;0.00;0.00;0.62;0.00;0.00;0.62;2.00;1.47;;;20.70;23.90;;;;;;2244485;61;20420;-71
2022/12/08 03:00:06;0.00;0.00;0.62;0.00;0.00;0.62;2.67;1.50;;;20.60;23.90;;;;;;2242969;61;20456;-70
2022/12/08 03:03:08;0.00;0.00;0.62;0.00;0.00;0.62;2.70;1.73;;;20.60;23.90;;;;;;2244414;61;20411;-72
2022/12/08 03:06:08;0.00;0.00;0.62;0.00;0.00;0.62;2.10;1.60;;;20.60;23.90;;;;;;2244246;61;20365;-72
2022/12/08 03:09:00;0.00;0.00;0.62;0.00;0.00;0.62;2.33;1.27;;;20.50;23.90;;;;;;2243036;61;20468;-71
2022/12/08 03:11:52;0.00;0.00;0.62;0.00;0.00;0.62;2.30;1.53;;;20.50;23.90;;;;;;2244373;61;20393;-71
2022/12/08 03:14:39;0.00;0.00;0.62;0.00;0.00;0.62;2.83;1.77;;;20.50;23.90;;;;;;2243748;61;20881;-73
2022/12/08 03:17:28;0.00;0.00;0.62;0.00;0.00;0.62;2.30;1.60;;;20.50;23.80;;;;;;2244377;61;20872;-72
2022/12/08 03:20:19;0.00;0.00;0.62;0.00;0.00;0.62;2.80;2.10;;;20.40;23.80;;;;;;2244251;61;20432;-72
2022/12/08 03:23:07;0.00;0.00;0.62;0.00;0.00;0.62;2.53;1.53;;;20.40;23.80;;;;;;2242918;61;20416;-72
2022/12/08 03:26:06;0.00;0.00;0.62;0.00;0.00;0.62;2.87;1.87;;;20.40;23.80;;;;;;2244470;61;20420;-72
2022/12/08 03:28:50;0.00;0.00;0.62;0.00;0.00;0.62;4.03;1.83;;;20.40;23.80;;;;;;2243947;61;20388;-72
2022/12/08 03:31:43;0.00;0.00;0.62;0.00;0.00;0.62;2.37;1.70;;;20.30;23.70;;;;;;2243675;61;20388;-72
2022/12/08 03:34:29;0.00;0.00;0.62;0.00;0.00;0.62;2.40;1.40;;;20.30;23.70;;;;;;2244249;61;20357;-71
2022/12/08 03:37:14;0.00;0.00;0.62;0.00;0.00;0.62;2.30;1.57;;;20.30;23.70;;;;;;2243101;61;20476;-71
2022/12/08 03:39:59;0.00;0.00;0.62;0.00;0.00;0.62;3.20;2.30;;;20.20;23.70;;;;;;2243935;61;20923;-70
2022/12/08 03:42:45;0.00;0.00;0.62;0.00;0.00;0.62;1.80;1.23;;;20.20;23.70;;;;;;2244404;61;20377;-72
2022/12/08 03:45:30;0.00;0.00;0.62;0.00;0.00;0.62;2.70;1.87;;;20.20;23.70;;;;;;2243030;61;20368;-72
2022/12/08 03:48:15;0.00;0.00;0.62;0.00;0.00;0.62;4.90;1.83;;;20.20;23.70;;;;;;2244008;61;20375;-72
2022/12/08 03:51:00;0.00;0.00;0.62;0.00;0.00;0.62;3.13;2.70;;;20.20;23.60;;;;;;2244124;61;20928;-72
2022/12/08 03:53:45;0.00;0.00;0.62;0.00;0.00;0.62;2.43;1.90;;;20.10;23.50;;;;;;2243295;61;20900;-71
2022/12/08 03:56:33;0.00;0.00;0.62;0.00;0.00;0.62;2.60;1.97;;;20.10;23.50;;;;;;2244178;61;20396;-72
2022/12/08 03:59:18;0.00;0.00;0.62;0.00;0.00;0.62;2.83;2.10;;;20.00;23.40;;;;;;2243006;61;20922;-72
2022/12/08 04:02:03;0.00;0.00;0.62;0.00;0.00;0.62;3.37;2.50;;;20.00;23.40;;;;;;2244164;61;20408;-70
2022/12/08 04:04:48;0.00;0.00;0.62;0.00;0.00;0.62;3.17;2.43;;;20.00;23.40;;;;;;2244095;61;20442;-72
2022/12/08 04:07:33;0.00;0.00;0.62;0.00;0.00;0.62;5.40;3.07;;;20.00;23.40;;;;;;2242822;61;20360;-72
2022/12/08 04:10:17;0.00;0.00;0.62;0.00;0.00;0.62;2.60;2.20;;;19.90;23.30;;;;;;2243975;61;20380;-71
2022/12/08 04:13:02;0.00;0.00;0.62;0.00;0.00;0.62;3.50;2.47;;;19.90;23.40;;;;;;2244165;61;20811;-72
2022/12/08 04:15:49;0.00;0.00;0.62;0.00;0.00;0.62;4.43;2.63;;;19.90;23.30;;;;;;2243080;61;20453;-72
2022/12/08 04:18:35;0.00;0.00;0.62;0.00;0.00;0.62;3.17;2.30;;;19.80;23.80;;;;;;2246324;61;20400;-72
2022/12/08 04:21:19;0.00;0.00;0.62;0.00;0.00;0.62;3.43;2.50;;;19.80;23.30;;;;;;2243476;61;20369;-70
2022/12/08 04:24:05;0.00;0.00;0.62;0.00;0.00;0.62;4.23;2.93;;;19.70;23.20;;;;;;2244000;61;20361;-72
2022/12/08 04:26:50;0.00;0.00;0.62;0.00;0.00;0.62;4.63;3.13;;;19.70;23.20;;;;;;2246974;61;20453;-70
2022/12/08 04:29:35;0.00;0.00;0.62;0.00;0.00;0.62;3.10;2.20;;;19.70;23.30;;;;;;2243350;61;20443;-70
2022/12/08 04:32:21;0.00;0.00;0.62;0.00;0.00;0.62;4.07;3.03;;;19.60;23.20;;;;;;2244665;61;20435;-72
2022/12/08 04:35:07;0.00;0.00;0.62;0.00;0.00;0.62;3.30;2.80;;;19.60;23.20;;;;;;2245152;61;20365;-72
2022/12/08 04:37:51;0.00;0.00;0.62;0.00;0.00;0.62;4.13;3.00;;;19.60;23.20;;;;;;2243331;61;20399;-72
2022/12/08 04:40:36;0.00;0.00;0.62;0.00;0.00;0.62;2.53;1.87;;;19.60;23.30;;;;;;2244759;61;20496;-70
2022/12/08 04:43:21;0.00;0.00;0.62;0.00;0.00;0.62;3.30;2.60;;;19.50;23.30;;;;;;2244678;61;20364;-70
2022/12/08 04:46:07;0.00;0.00;0.62;0.00;0.00;0.62;2.50;2.30;;;19.50;23.30;;;;;;2244452;61;20373;-70
2022/12/08 04:48:53;0.00;0.00;0.62;0.00;0.00;0.62;4.70;3.00;;;19.50;23.30;;;;;;2244851;61;20419;-71
2022/12/08 04:51:38;0.00;0.00;0.62;0.00;0.00;0.62;4.77;2.53;;;19.50;23.40;;;;;;2243526;61;20388;-70
2022/12/08 04:54:22;0.00;0.00;0.62;0.00;0.00;0.62;4.10;2.87;;;19.40;23.30;;;;;;2244203;61;20388;-71
2022/12/08 04:57:07;0.00;0.00;0.62;0.00;0.00;0.62;3.60;2.70;;;19.40;23.30;;;;;;2244810;61;20365;-70
2022/12/08 04:59:52;0.00;0.00;0.62;0.00;0.00;0.62;5.40;3.37;;;19.40;23.30;;;;;;2243437;61;20472;-71
2022/12/08 05:02:37;0.00;0.00;0.62;0.00;0.00;0.62;4.70;2.50;;;19.40;23.30;;;;;;2244662;61;20361;-70
2022/12/08 05:05:23;0.00;0.00;0.62;0.00;0.00;0.62;3.10;2.80;;;19.40;23.30;;;;;;2244407;61;20380;-70
2022/12/08 05:08:09;0.00;0.00;0.62;0.00;0.00;0.62;3.37;2.70;;;19.40;23.30;;;;;;2244045;61;20369;-72
2022/12/08 05:11:01;0.00;0.00;0.62;0.00;0.00;0.62;3.90;2.97;;;19.30;23.30;;;;;;2247171;61;20481;-72
2022/12/08 05:13:47;0.00;0.00;0.62;0.00;0.00;0.62;6.97;3.73;;;19.30;23.30;;;;;;2243296;61;20373;-70
2022/12/08 05:16:31;0.00;0.00;0.62;0.00;0.00;0.62;4.13;2.87;;;19.30;23.30;;;;;;2244786;61;20404;-70
2022/12/08 05:19:16;0.00;0.00;0.62;0.00;0.00;0.62;4.07;2.60;;;19.20;23.20;;;;;;2244777;61;20396;-70
2022/12/08 05:22:02;0.00;0.00;0.62;0.00;0.00;0.62;3.53;2.80;;;19.20;23.30;;;;;;2243234;61;20458;-70
2022/12/08 05:24:47;0.00;0.00;0.62;0.00;0.00;0.62;3.10;2.80;;;19.20;23.30;;;;;;2244633;61;20461;-70
2022/12/08 05:27:32;0.00;0.00;0.62;0.00;0.00;0.62;6.70;3.27;;;19.20;23.30;;;;;;2244238;61;20372;-71
2022/12/08 05:30:17;0.00;0.00;0.62;0.00;0.00;0.62;3.50;3.10;;;19.10;23.20;;;;;;2243475;61;20388;-71
2022/12/08 05:33:01;0.00;0.00;0.62;0.00;0.00;0.62;3.17;2.40;;;19.10;23.20;;;;;;2247158;61;20419;-71
2022/12/08 05:35:46;0.00;0.00;0.62;0.00;0.00;0.62;3.53;2.70;;;19.10;23.30;;;;;;2242648;61;20485;-72
2022/12/08 05:38:31;0.00;0.00;0.62;0.00;0.00;0.62;4.43;3.17;;;19.00;23.20;;;;;;2246836;61;20439;-71
2022/12/08 05:41:19;0.00;0.00;0.62;0.00;0.00;0.62;3.03;2.30;;;19.00;23.30;;;;;;2244616;61;20902;-72
2022/12/08 05:44:04;0.00;0.00;0.62;0.00;0.00;0.62;2.60;2.07;;;19.00;23.30;;;;;;2243440;61;20373;-72
2022/12/08 05:46:49;0.00;0.00;0.62;0.00;0.00;0.62;3.10;2.10;;;19.00;23.40;;;;;;2244738;61;20368;-72
2022/12/08 05:49:34;0.00;0.00;0.62;0.00;0.00;0.62;3.23;2.30;;;19.00;23.40;;;;;;2244285;61;20484;-71
2022/12/08 05:52:18;0.00;0.00;0.62;0.00;0.00;0.62;2.77;2.23;;;19.00;23.40;;;;;;2243860;61;20392;-71
2022/12/08 05:55:05;0.00;0.00;0.62;0.00;0.00;0.62;3.43;2.40;;;19.00;23.40;;;;;;2247061;61;20876;-70
2022/12/08 05:57:50;0.00;0.00;0.62;0.00;0.00;0.62;3.53;2.60;;;19.00;23.50;;;;;;2243068;61;20477;-71
2022/12/08 06:00:34;0.00;0.00;0.62;0.00;0.00;0.62;3.67;2.20;;;18.90;23.40;;;;;;2247012;61;20412;-71
2022/12/08 06:03:19;0.00;0.00;0.62;0.00;0.00;0.62;2.53;2.33;;;18.90;23.40;;;;;;2244066;61;20384;-71
2022/12/08 06:06:05;0.00;0.00;0.62;0.00;0.00;0.62;2.97;2.40;;;18.90;23.40;;;;;;2243438;61;20368;-71
2022/12/08 06:08:50;0.00;0.00;0.62;0.00;0.00;0.62;2.80;2.40;;;18.90;23.50;;;;;;2244101;61;20920;-71
2022/12/08 06:11:36;0.00;0.00;0.62;0.00;0.00;0.62;3.30;2.37;;;18.80;23.40;;;;;;2244293;61;20793;-71
2022/12/08 06:14:21;0.00;0.00;0.62;0.00;0.00;0.62;3.33;2.10;;;18.80;23.50;;;;;;2243796;61;20428;-71
2022/12/08 06:17:06;0.00;0.00;0.62;0.00;0.00;0.62;3.00;2.17;;;18.80;23.50;;;;;;2244495;61;20408;-71
2022/12/08 06:19:50;0.00;0.00;0.62;0.00;0.00;0.62;2.60;1.50;;;18.80;23.50;;;;;;2243173;61;20400;-71
2022/12/08 06:22:35;0.00;0.00;0.62;0.00;0.00;0.62;3.03;2.70;;;18.80;23.50;;;;;;2246891;61;20357;-71
2022/12/08 06:25:20;0.00;0.00;0.62;0.00;0.00;0.62;4.30;2.53;;;18.80;23.50;;;;;;2244249;61;20348;-66
2022/12/08 06:28:06;0.00;0.00;0.62;0.00;0.00;0.62;3.03;2.07;;;18.80;23.50;;;;;;2243391;61;20408;-65
2022/12/08 06:30:51;0.00;0.00;0.62;0.00;0.00;0.62;5.63;3.03;;;18.80;23.60;;;;;;2244553;61;20456;-64
2022/12/08 06:33:37;0.00;0.00;0.62;0.00;0.00;0.62;3.57;2.50;;;18.70;23.60;;;;;;2244710;61;20405;-65
2022/12/08 06:36:25;0.00;0.00;0.62;0.00;0.00;0.62;2.40;2.20;;;18.70;23.60;;;;;;2243532;61;20365;-66
2022/12/08 06:39:09;0.00;0.00;0.62;0.00;0.00;0.62;4.30;2.90;;;18.70;23.70;;;;;;2244395;61;20400;-66
2022/12/08 06:44:59;0.00;0.00;0.62;0.00;0.00;0.62;3.27;2.17;;;18.60;23.70;;;;;;2244381;61;20847;-64
2022/12/08 06:47:44;0.00;0.00;0.62;0.00;0.00;0.62;2.60;2.00;;;18.70;23.90;;;;;;2244260;61;20364;-64
2022/12/08 06:50:28;0.00;0.00;0.62;0.00;0.00;0.62;3.20;2.40;;;18.70;23.90;;;;;;2242927;61;20476;-65
2022/12/08 06:53:14;0.00;0.00;0.62;0.00;0.00;0.62;2.47;2.27;;;18.60;23.80;;;;;;2244108;61;20753;-64
2022/12/08 06:55:58;0.00;0.00;0.62;0.00;0.00;0.62;2.40;1.90;;;18.60;23.80;;;;;;2244794;61;20408;-68
2022/12/08 06:58:43;0.00;0.00;0.62;0.00;0.00;0.62;2.40;1.80;;;18.60;23.90;;;;;;2244688;61;20992;-68
2022/12/08 07:01:29;0.00;0.00;0.62;0.00;0.00;0.62;2.53;2.13;;;18.60;23.90;;;;;;2245069;61;20819;-68
2022/12/08 07:04:14;0.00;0.00;0.62;0.00;0.00;0.62;3.10;2.60;;;18.60;24.00;;;;;;2243623;61;21114;-67
2022/12/08 07:06:59;0.00;0.00;0.62;0.00;0.00;0.62;2.67;1.93;;;18.60;24.00;;;;;;2244967;61;20412;-66
2022/12/08 07:09:44;0.00;0.00;0.62;0.00;0.00;0.62;3.00;2.70;;;18.60;23.90;;;;;;2244840;61;20384;-64
2022/12/08 07:12:28;0.00;0.00;0.62;0.00;0.00;0.62;2.90;1.97;;;18.60;24.50;;;;;;2242905;61;20940;-64
2022/12/08 07:15:13;0.00;0.00;0.62;0.00;0.00;0.62;2.10;1.83;;;18.60;23.90;;;;;;2246556;61;20421;-64
2022/12/08 07:17:59;0.00;0.00;0.62;0.00;0.00;0.62;2.10;1.90;;;18.60;23.90;;;;;;2244357;61;20368;-65
2022/12/08 07:20:44;0.00;0.00;0.62;0.00;0.00;0.62;2.70;2.10;;;18.60;24.00;;;;;;2242889;61;20368;-71
2022/12/08 07:23:28;0.00;0.00;0.62;0.00;0.00;0.62;2.40;1.93;;;18.60;24.50;;;;;;2244527;61;20873;-69
2022/12/08 07:26:13;0.00;0.00;0.62;0.00;0.00;0.62;2.17;1.77;;;18.60;24.00;;;;;;2243918;61;20415;-62
2022/12/08 07:28:59;0.00;0.00;0.62;0.00;0.00;0.62;2.23;1.80;;;18.60;24.00;;;;;;2244213;61;20395;-62
2022/12/08 07:31:44;0.00;0.00;0.62;0.00;0.00;0.62;1.70;1.20;;;18.60;24.00;;;;;;2244350;61;20916;-62
2022/12/08 07:34:30;0.00;0.00;0.62;0.00;0.00;0.62;8.73;1.20;;;18.60;24.00;;;;;;2242836;61;20360;-65
2022/12/08 07:37:15;0.00;0.00;0.62;0.00;0.00;0.62;1.60;1.10;;;18.60;24.00;;;;;;2243884;61;20368;-63
2022/12/08 07:40:00;0.00;0.00;0.62;0.00;0.00;0.62;2.10;1.07;;;18.60;24.00;;;;;;2244260;61;20436;-64
2022/12/08 07:42:44;0.00;0.00;0.62;0.00;0.00;0.62;1.67;0.90;;;18.70;24.20;;;;;;2242823;61;20361;-65
2022/12/08 07:45:29;0.00;0.00;0.62;0.00;0.00;0.62;1.80;0.90;;;18.70;24.20;;;;;;2244307;61;20419;-69
2022/12/08 07:48:14;0.00;0.00;0.62;0.00;0.00;0.62;1.70;1.00;;;18.70;24.10;;;;;;2245899;61;20357;-66
2022/12/08 07:51:01;0.00;0.00;0.62;0.00;0.00;0.62;1.30;0.80;;;18.70;24.60;;;;;;2243978;61;20432;-65
2022/12/08 07:53:48;0.00;0.00;0.62;0.00;0.00;0.62;1.70;0.90;;;18.80;24.20;;;;;;2244180;61;20885;-67
2022/12/08 07:56:34;0.00;0.00;0.62;0.00;0.00;0.62;1.40;1.00;;;18.80;24.20;;;;;;2242975;61;20432;-64
2022/12/08 07:59:18;0.00;0.00;0.62;0.00;0.00;0.62;2.03;1.03;;;18.90;24.40;;;;;;2244213;61;20403;-66
2022/12/08 08:02:03;0.00;0.00;0.62;0.00;0.00;0.62;1.53;1.00;;;18.90;24.40;;;;;;2243932;61;20750;-65
2022/12/08 08:04:49;0.00;0.00;0.62;0.00;0.00;0.62;1.50;0.90;;;18.90;24.40;;;;;;2242701;61;20976;-65
2022/12/08 08:07:36;0.00;0.00;0.62;0.00;0.00;0.62;1.57;1.10;;;19.00;24.50;;;;;;2244141;61;20389;-66
2022/12/08 08:10:20;0.00;0.00;0.62;0.00;0.00;0.62;1.57;1.07;;;19.00;24.50;;;;;;2243691;61;20404;-65
2022/12/08 08:13:05;0.00;0.00;0.62;0.00;0.00;0.62;1.57;0.90;;;19.00;24.50;;;;;;2243626;61;20368;-64
2022/12/08 08:15:50;0.00;0.00;0.62;0.00;0.00;0.62;2.03;1.10;;;19.10;24.50;;;;;;2244159;61;20985;-63
2022/12/08 08:18:36;0.00;0.00;0.62;0.00;0.00;0.62;2.00;1.20;;;19.10;24.50;;;;;;2242669;61;20423;-65
2022/12/08 08:21:21;0.00;0.00;0.62;0.00;0.00;0.62;2.00;1.00;;;19.10;24.50;;;;;;2244206;61;20401;-67
2022/12/08 08:24:08;0.00;0.00;0.62;0.00;0.00;0.62;2.03;0.87;;;19.20;24.60;;;;;;2244035;61;20421;-68
2022/12/08 08:26:54;0.00;0.00;0.62;0.00;0.00;0.62;1.60;1.00;;;19.20;24.70;;;;;;2242805;61;20814;-66
2022/12/08 08:29:40;0.00;0.00;0.62;0.00;0.00;0.62;2.70;1.50;;;19.20;24.70;;;;;;2244091;61;20420;-66
2022/12/08 08:32:24;0.00;0.00;0.62;0.00;0.00;0.62;1.80;1.00;;;19.30;24.80;;;;;;2243872;61;20408;-67
2022/12/08 08:35:09;0.00;0.00;0.62;0.00;0.00;0.62;1.40;0.93;;;19.30;24.80;;;;;;2243425;61;20392;-66
2022/12/08 08:37:56;0.00;0.00;0.62;0.00;0.00;0.62;1.53;0.87;;;19.30;24.80;;;;;;2243961;61;20360;-64
2022/12/08 08:40:43;0.00;0.00;0.62;0.00;0.00;0.62;1.37;0.90;;;19.40;24.80;;;;;;2242834;61;20820;-65
2022/12/08 08:43:28;0.00;0.00;0.62;0.00;0.00;0.62;1.50;0.90;;;19.40;24.80;;;;;;2243918;61;20364;-64
2022/12/08 08:46:12;0.00;0.00;0.62;0.00;0.00;0.62;1.60;0.83;;;19.40;24.90;;;;;;2244043;61;20904;-62
2022/12/08 08:48:57;0.00;0.00;0.62;0.00;0.00;0.62;1.90;1.10;;;19.40;24.90;;;;;;2242613;61;20380;-65
2022/12/08 08:51:42;0.00;0.00;0.62;0.00;0.00;0.62;1.80;1.00;;;19.50;24.90;;;;;;2244153;61;20384;-64
2022/12/08 08:54:28;0.00;0.00;0.62;0.00;0.00;0.62;1.70;0.90;;;19.50;24.80;;;;;;2243976;61;20376;-63
2022/12/08 08:57:14;0.00;0.00;0.62;0.00;0.00;0.62;3.00;1.03;;;19.50;24.80;;;;;;2243483;61;20403;-64
2022/12/08 08:59:59;0.00;0.00;0.62;0.00;0.00;0.62;2.33;1.10;;;19.50;24.80;;;;;;2244011;61;20473;-64
2022/12/08 09:02:44;0.00;0.00;0.62;0.00;0.00;0.62;1.50;0.80;;;19.60;24.80;;;;;;2242988;61;20754;-64
2022/12/08 09:05:29;0.00;0.00;0.62;0.00;0.00;0.62;1.77;1.10;;;19.60;24.80;;;;;;2244019;61;20759;-64
2022/12/08 09:08:13;0.00;0.00;0.62;0.00;0.00;0.62;1.40;0.80;;;19.60;24.70;;;;;;2243881;61;20385;-63
2022/12/08 09:11:00;0.00;0.00;0.62;0.00;0.00;0.62;1.43;0.90;;;19.60;24.70;;;;;;2242709;61;20387;-65
2022/12/08 09:13:48;0.00;0.00;0.62;0.00;0.00;0.62;1.50;0.90;;;19.60;24.70;;;;;;2244620;61;20368;-65
2022/12/08 09:16:34;0.00;0.00;0.62;0.00;0.00;0.62;2.10;0.90;;;19.60;24.60;;;;;;2244632;61;20492;-64
2022/12/08 09:19:18;0.00;0.00;0.62;0.00;0.00;0.62;1.40;0.80;;;19.70;24.70;;;;;;2243794;61;20430;-64
2022/12/08 09:22:04;0.00;0.00;0.62;0.00;0.00;0.62;1.40;0.90;;;19.70;24.60;;;;;;2244521;61;20356;-64
2022/12/08 09:24:48;0.00;0.00;0.62;0.00;0.00;0.62;1.70;0.90;;;19.70;24.60;;;;;;2243516;61;20404;-61
2022/12/08 09:27:33;0.00;0.00;0.62;0.00;0.00;0.62;1.47;0.80;;;19.80;24.70;;;;;;2244469;61;20370;-65
2022/12/08 09:30:19;0.00;0.00;0.62;0.00;0.00;0.62;1.40;0.80;;;19.80;24.60;;;;;;2244649;61;20834;-63
2022/12/08 09:33:06;0.00;0.00;0.62;0.00;0.00;0.62;1.60;1.00;;;19.70;24.50;;;;;;2243339;61;20457;-63
2022/12/08 09:35:52;0.00;0.00;0.62;0.00;0.00;0.62;1.53;1.00;;;19.70;24.50;;;;;;2244621;61;20881;-63
2022/12/08 09:38:39;0.00;0.00;0.62;0.00;0.00;0.62;1.30;0.70;;;19.80;25.00;;;;;;2244469;61;20809;-64
2022/12/08 09:41:32;0.00;0.00;0.62;0.00;0.00;0.62;1.83;0.70;;;19.80;24.50;;;;;;2243367;61;20416;-62
2022/12/08 09:44:46;0.00;0.00;0.62;0.00;0.00;0.62;1.40;0.80;;;19.80;24.50;;;;;;2244367;61;20377;-65
2022/12/08 09:47:38;0.00;0.00;0.62;0.00;0.00;0.62;1.30;0.70;;;19.80;24.50;;;;;;2243122;61;20365;-62
2022/12/08 09:50:34;0.00;0.00;0.62;0.00;0.00;0.62;1.57;1.00;;;19.80;24.50;;;;;;2244226;61;20448;-64
2022/12/08 09:53:23;0.00;0.00;0.62;0.00;0.00;0.62;1.60;0.80;;;19.90;24.50;;;;;;2244768;61;20772;-65
2022/12/08 09:56:14;0.00;0.00;0.62;0.00;0.00;0.62;1.60;0.70;;;19.90;24.50;;;;;;2243261;61;20905;-64
2022/12/08 09:59:02;0.00;0.00;0.62;0.00;0.00;0.62;1.30;0.70;;;19.90;24.50;;;;;;2244505;61;20473;-61
2022/12/08 10:01:47;0.00;0.00;0.62;0.00;0.00;0.62;1.73;0.90;;;19.90;24.40;;;;;;2243315;61;20365;-61
2022/12/08 10:04:36;0.00;0.00;0.62;0.00;0.00;0.62;1.50;0.80;;;19.90;24.40;;;;;;2246708;61;20360;-63
2022/12/08 10:07:30;0.00;0.00;0.62;0.00;0.00;0.62;1.40;0.70;;;19.90;24.40;;;;;;2244015;61;20412;-64
2022/12/08 10:10:27;0.00;0.00;0.62;0.00;0.00;0.62;1.73;1.10;;;20.00;24.50;;;;;;2243126;61;20425;-65
2022/12/08 10:13:20;0.00;0.00;0.62;0.00;0.00;0.62;1.37;0.77;;;20.00;24.50;;;;;;2244578;61;20365;-63
2022/12/08 10:16:21;0.00;0.00;0.62;0.00;0.00;0.62;1.50;0.80;;;20.00;24.40;;;;;;2244321;61;20364;-64
2022/12/08 10:19:14;0.00;0.00;0.62;0.00;0.00;0.62;1.37;0.87;;;20.00;24.40;;;;;;2244517;61;20415;-66
2022/12/08 10:22:03;0.00;0.00;0.62;0.00;0.00;0.62;2.07;1.00;;;20.00;24.40;;;;;;2244573;61;20896;-65
2022/12/08 10:24:58;0.00;0.00;0.62;0.00;0.00;0.62;1.50;0.80;;;20.00;24.90;;;;;;2242978;61;20464;-64
2022/12/08 10:27:45;0.00;0.00;0.62;0.00;0.00;0.62;1.40;0.70;;;20.00;24.40;;;;;;2244322;61;20396;-65
2022/12/08 10:30:31;0.00;0.00;0.62;0.00;0.00;0.62;1.43;0.80;;;20.00;24.40;;;;;;2244513;61;20376;-65
2022/12/08 10:33:20;0.00;0.00;0.62;0.00;0.00;0.62;1.50;0.90;;;20.10;24.40;;;;;;2243553;61;20364;-64
2022/12/08 10:36:06;0.00;0.00;0.62;0.00;0.00;0.62;1.40;0.77;;;20.10;24.40;;;;;;2244284;61;20364;-64
2022/12/08 10:38:52;0.00;0.00;0.62;0.00;0.00;0.62;1.40;0.80;;;20.10;24.40;;;;;;2243027;61;20964;-66
2022/12/08 10:41:36;0.00;0.00;0.62;0.00;0.00;0.62;1.40;0.80;;;20.10;24.40;;;;;;2244450;61;20368;-64
2022/12/08 10:44:21;0.00;0.00;0.62;0.00;0.00;0.62;1.30;0.70;;;20.10;24.30;;;;;;2244190;61;20412;-66
2022/12/08 10:47:12;0.00;0.00;0.62;0.00;0.00;0.62;1.30;0.70;;;20.10;24.30;;;;;;2245268;61;20365;-63
2022/12/08 10:50:17;0.00;0.00;0.62;0.00;0.00;0.62;1.40;0.80;;;20.10;24.30;;;;;;2244454;61;20444;-64
2022/12/08 10:53:11;0.00;0.00;0.62;0.00;0.00;0.62;1.37;0.80;;;20.10;24.30;;;;;;2244241;61;20819;-62
2022/12/08 10:56:14;0.00;0.00;0.62;0.00;0.00;0.62;1.30;0.70;;;20.20;24.40;;;;;;2244052;61;20392;-64
2022/12/08 10:59:16;0.00;0.00;0.62;0.00;0.00;0.62;1.30;0.70;;;20.10;24.30;;;;;;2244043;61;20408;-63
2022/12/08 11:02:01;0.00;0.00;0.62;0.00;0.00;0.62;1.47;0.77;;;20.10;24.30;;;;;;2243064;61;20359;-64
2022/12/08 11:04:46;0.00;0.00;0.62;0.00;0.00;0.62;1.73;0.80;;;20.10;24.30;;;;;;2244298;61;20368;-65
2022/12/08 11:07:31;0.00;0.00;0.62;0.00;0.00;0.62;1.30;0.70;;;20.10;24.30;;;;;;2244195;61;20380;-63
2022/12/08 11:10:18;0.00;0.00;0.62;0.00;0.00;0.62;1.40;0.70;;;20.20;24.30;;;;;;2243404;61;20384;-64